createdAt,value
2018-12-20T00:00:21.600Z,7.90
2018-12-20T00:01:21.781Z,7.90
2018-12-20T00:02:21.571Z,8.00
2018-12-20T00:03:21.568Z,8.20
2018-12-20T00:04:21.549Z,8.30
2018-12-20T00:05:21.559Z,7.40
2018-12-20T00:06:21.559Z,7.10
2018-12-20T00:07:21.659Z,7.40
2018-12-20T00:08:21.609Z,7.70
2018-12-20T00:09:21.743Z,7.40
2018-12-20T00:10:21.714Z,7.50
2018-12-20T00:11:21.519Z,6.70
2018-12-20T00:12:21.650Z,7.30
2018-12-20T00:13:21.504Z,7.30
2018-12-20T00:14:21.708Z,6.70
2018-12-20T00:15:21.486Z,6.60
2018-12-20T00:16:21.557Z,6.80
2018-12-20T00:17:21.514Z,7.00
2018-12-20T00:18:21.468Z,6.80
2018-12-20T00:19:21.783Z,6.70
2018-12-20T00:20:21.541Z,6.60
2018-12-20T00:21:21.503Z,6.80
2018-12-20T00:22:21.660Z,7.10
2018-12-20T00:23:21.805Z,6.50
2018-12-20T00:24:21.655Z,6.30
2018-12-20T00:25:21.493Z,6.50
2018-12-20T00:26:21.458Z,6.90
2018-12-20T00:27:21.425Z,6.40
2018-12-20T00:28:21.470Z,6.30
2018-12-20T00:29:21.409Z,6.60
2018-12-20T00:30:21.427Z,6.40
2018-12-20T00:31:21.398Z,6.30
2018-12-20T00:32:21.652Z,6.00
2018-12-20T00:33:21.492Z,6.00
2018-12-20T00:34:21.413Z,7.00
2018-12-20T00:35:21.375Z,6.10
2018-12-20T00:36:21.387Z,6.80
2018-12-20T00:37:21.401Z,6.40
2018-12-20T00:38:21.384Z,6.10
2018-12-20T00:39:21.368Z,6.50
2018-12-20T00:40:21.451Z,6.60
2018-12-20T00:41:21.484Z,7.30
2018-12-20T00:42:21.346Z,6.30
2018-12-20T00:43:31.077Z,5.80
2018-12-20T00:44:21.327Z,6.00
2018-12-20T00:45:21.336Z,6.30
2018-12-20T00:46:21.317Z,5.80
2018-12-20T00:47:21.316Z,6.30
2018-12-20T00:48:21.314Z,5.70
2018-12-20T00:49:21.315Z,6.20
2018-12-20T00:50:21.321Z,6.80
2018-12-20T00:51:21.290Z,6.30
2018-12-20T00:52:21.315Z,5.70
2018-12-20T00:53:21.294Z,5.80
2018-12-20T00:54:21.294Z,5.90
2018-12-20T00:55:21.619Z,7.80
2018-12-20T00:56:21.275Z,6.10
2018-12-20T00:57:21.301Z,6.30
2018-12-20T00:58:21.460Z,6.60
2018-12-20T00:59:21.257Z,6.30
2018-12-20T01:00:21.290Z,6.20
2018-12-20T01:01:21.241Z,6.30
2018-12-20T01:02:21.435Z,6.70
2018-12-20T01:03:21.257Z,6.80
2018-12-20T01:04:21.363Z,6.60
2018-12-20T01:05:21.318Z,5.80
2018-12-20T01:06:21.207Z,7.20
2018-12-20T01:07:21.236Z,6.80
2018-12-20T01:08:21.244Z,6.50
2018-12-20T01:09:21.203Z,6.40
2018-12-20T01:10:21.309Z,6.60
2018-12-20T01:11:21.193Z,6.50
2018-12-20T01:12:21.205Z,6.50
2018-12-20T01:13:21.252Z,7.20
2018-12-20T01:14:21.165Z,7.10
2018-12-20T01:15:21.163Z,6.40
2018-12-20T01:16:21.256Z,6.50
2018-12-20T01:17:21.170Z,7.20
2018-12-20T01:18:21.264Z,6.50
2018-12-20T01:19:21.275Z,6.40
2018-12-20T01:20:21.153Z,7.00
2018-12-20T01:21:21.344Z,6.80
2018-12-20T01:22:21.274Z,6.80
2018-12-20T01:23:21.133Z,6.10
2018-12-20T01:24:21.470Z,6.30
2018-12-20T01:25:21.147Z,6.60
2018-12-20T01:26:21.315Z,6.90
2018-12-20T01:27:21.115Z,6.40
2018-12-20T01:28:21.252Z,6.70
2018-12-20T01:29:21.240Z,7.00
2018-12-20T01:30:21.222Z,7.10
2018-12-20T01:31:21.241Z,7.00
2018-12-20T01:32:21.225Z,6.70
2018-12-20T01:33:21.214Z,7.40
2018-12-20T01:34:21.418Z,6.80
2018-12-20T01:35:21.110Z,7.20
2018-12-20T01:36:21.329Z,7.70
2018-12-20T01:37:21.038Z,7.60
2018-12-20T01:38:21.214Z,7.10
2018-12-20T01:39:21.232Z,7.90
2018-12-20T01:40:21.356Z,7.60
2018-12-20T01:41:21.065Z,7.90
2018-12-20T01:42:21.234Z,7.80
2018-12-20T01:43:21.042Z,8.00
2018-12-20T01:44:21.048Z,7.90
2018-12-20T01:45:21.056Z,7.70
2018-12-20T01:46:21.195Z,7.90
2018-12-20T01:47:21.289Z,7.60
2018-12-20T01:48:21.027Z,7.50
2018-12-20T01:49:21.145Z,7.80
2018-12-20T01:50:21.172Z,8.00
2018-12-20T01:51:21.169Z,7.90
2018-12-20T01:52:20.984Z,8.60
2018-12-20T01:53:21.070Z,7.70
2018-12-20T01:54:20.954Z,8.10
2018-12-20T01:55:21.279Z,7.90
2018-12-20T01:56:20.939Z,8.50
2018-12-20T01:57:20.939Z,8.70
2018-12-20T01:58:20.950Z,7.60
2018-12-20T01:59:21.160Z,8.50
2018-12-20T02:00:20.917Z,9.60
2018-12-20T02:01:20.973Z,8.20
2018-12-20T02:02:21.004Z,8.60
2018-12-20T02:03:20.914Z,9.30
2018-12-20T02:04:21.288Z,8.70
2018-12-20T02:05:20.901Z,7.50
2018-12-20T02:06:20.944Z,7.80
2018-12-20T02:07:21.089Z,7.50
2018-12-20T02:08:20.892Z,7.30
2018-12-20T02:09:21.002Z,8.30
2018-12-20T02:10:20.858Z,8.40
2018-12-20T02:11:20.945Z,7.10
2018-12-20T02:12:20.866Z,7.40
2018-12-20T02:13:21.090Z,7.80
2018-12-20T02:14:20.834Z,7.90
2018-12-20T02:15:20.824Z,7.40
2018-12-20T02:16:21.215Z,7.20
2018-12-20T02:17:21.273Z,7.20
2018-12-20T02:18:20.878Z,7.20
2018-12-20T02:19:20.888Z,7.20
2018-12-20T02:20:20.953Z,8.00
2018-12-20T02:21:20.853Z,8.00
2018-12-20T02:22:20.990Z,6.70
2018-12-20T02:23:20.909Z,7.50
2018-12-20T02:24:20.803Z,6.60
2018-12-20T02:25:21.070Z,7.10
2018-12-20T02:26:20.976Z,7.00
2018-12-20T02:27:20.771Z,7.20
2018-12-20T02:28:21.048Z,7.10
2018-12-20T02:29:20.772Z,6.40
2018-12-20T02:30:20.852Z,6.30
2018-12-20T02:31:20.941Z,6.90
2018-12-20T02:32:20.958Z,6.30
2018-12-20T02:33:20.809Z,6.60
2018-12-20T02:34:20.905Z,7.00
2018-12-20T02:35:20.843Z,6.60
2018-12-20T02:36:20.867Z,6.10
2018-12-20T02:37:21.192Z,5.80
2018-12-20T02:38:20.729Z,6.10
2018-12-20T02:39:20.780Z,5.90
2018-12-20T02:40:20.940Z,6.00
2018-12-20T02:41:20.943Z,6.50
2018-12-20T02:42:20.679Z,5.50
2018-12-20T02:43:20.678Z,6.10
2018-12-20T02:44:20.668Z,5.80
2018-12-20T02:45:20.845Z,6.10
2018-12-20T02:46:20.879Z,5.50
2018-12-20T02:47:20.660Z,5.80
2018-12-20T02:48:20.771Z,5.90
2018-12-20T02:49:20.714Z,5.60
2018-12-20T02:50:20.848Z,5.50
2018-12-20T02:51:20.860Z,6.10
2018-12-20T02:52:20.875Z,5.60
2018-12-20T02:53:20.779Z,5.90
2018-12-20T02:54:20.682Z,6.10
2018-12-20T02:55:20.849Z,5.40
2018-12-20T02:56:20.848Z,5.70
2018-12-20T02:57:20.685Z,6.40
2018-12-20T02:58:20.893Z,5.70
2018-12-20T02:59:20.753Z,5.90
2018-12-20T03:00:20.620Z,5.50
2018-12-20T03:01:20.566Z,5.70
2018-12-20T03:02:20.734Z,6.00
2018-12-20T03:03:20.577Z,5.50
2018-12-20T03:04:20.753Z,6.10
2018-12-20T03:05:20.816Z,5.60
2018-12-20T03:06:20.723Z,5.70
2018-12-20T03:07:20.580Z,5.50
2018-12-20T03:08:20.876Z,6.40
2018-12-20T03:09:20.599Z,6.20
2018-12-20T03:10:20.532Z,6.50
2018-12-20T03:11:20.517Z,6.40
2018-12-20T03:12:20.741Z,6.20
2018-12-20T03:13:20.839Z,5.70
2018-12-20T03:14:20.511Z,6.90
2018-12-20T03:15:20.599Z,5.80
2018-12-20T03:16:20.686Z,5.00
2018-12-20T03:17:20.498Z,5.70
2018-12-20T03:18:20.576Z,6.00
2018-12-20T03:19:20.577Z,5.70
2018-12-20T03:20:20.465Z,5.90
2018-12-20T03:21:20.644Z,6.50
2018-12-20T03:22:20.726Z,6.80
2018-12-20T03:23:20.665Z,6.30
2018-12-20T03:24:20.776Z,5.60
2018-12-20T03:25:20.780Z,6.00
2018-12-20T03:26:20.647Z,5.70
2018-12-20T03:27:20.446Z,5.90
2018-12-20T03:28:20.417Z,5.90
2018-12-20T03:29:20.764Z,5.90
2018-12-20T03:30:20.585Z,5.80
2018-12-20T03:31:20.420Z,5.90
2018-12-20T03:32:20.416Z,5.40
2018-12-20T03:33:20.437Z,6.00
2018-12-20T03:34:20.427Z,6.40
2018-12-20T03:35:20.380Z,5.60
2018-12-20T03:36:20.681Z,5.30
2018-12-20T03:37:20.382Z,5.60
2018-12-20T03:38:20.389Z,5.80
2018-12-20T03:39:20.423Z,7.00
2018-12-20T03:40:20.749Z,5.20
2018-12-20T03:41:20.503Z,5.30
2018-12-20T03:42:20.365Z,5.30
2018-12-20T03:43:20.558Z,5.50
2018-12-20T03:44:20.524Z,4.80
2018-12-20T03:45:28.381Z,8.40
2018-12-20T03:46:20.336Z,4.90
2018-12-20T03:47:20.556Z,5.10
2018-12-20T03:48:20.496Z,5.00
2018-12-20T03:49:20.622Z,4.10
2018-12-20T03:50:20.304Z,4.80
2018-12-20T03:51:20.291Z,5.40
2018-12-20T03:52:20.300Z,4.70
2018-12-20T03:53:20.311Z,5.40
2018-12-20T03:54:20.434Z,4.90
2018-12-20T03:55:20.282Z,5.10
2018-12-20T03:56:20.267Z,6.00
2018-12-20T03:57:20.568Z,6.30
2018-12-20T03:58:20.368Z,6.00
2018-12-20T03:59:20.281Z,5.10
2018-12-20T04:00:20.561Z,5.00
2018-12-20T04:01:20.247Z,5.10
2018-12-20T04:02:20.364Z,5.10
2018-12-20T04:03:20.306Z,6.00
2018-12-20T04:04:20.656Z,4.80
2018-12-20T04:05:20.234Z,5.20
2018-12-20T04:06:20.594Z,5.10
2018-12-20T04:07:20.413Z,6.40
2018-12-20T04:08:20.233Z,5.00
2018-12-20T04:09:20.378Z,5.00
2018-12-20T04:10:20.191Z,5.10
2018-12-20T04:11:20.357Z,5.60
2018-12-20T04:12:20.177Z,5.10
2018-12-20T04:13:20.453Z,5.20
2018-12-20T04:14:20.168Z,5.70
2018-12-20T04:15:20.314Z,5.50
2018-12-20T04:16:20.264Z,5.70
2018-12-20T04:17:20.315Z,5.20
2018-12-20T04:18:20.143Z,7.00
2018-12-20T04:19:20.210Z,5.40
2018-12-20T04:20:20.204Z,5.80
2018-12-20T04:21:20.361Z,5.60
2018-12-20T04:22:20.549Z,5.40
2018-12-20T04:23:20.115Z,7.60
2018-12-20T04:24:20.235Z,5.40
2018-12-20T04:25:20.118Z,5.30
2018-12-20T04:26:20.380Z,7.20
2018-12-20T04:27:20.104Z,9.10
2018-12-20T04:28:20.470Z,5.00
2018-12-20T04:29:20.084Z,5.20
2018-12-20T04:30:20.365Z,5.00
2018-12-20T04:31:20.316Z,5.40
2018-12-20T04:32:20.089Z,5.60
2018-12-20T04:33:20.542Z,5.30
2018-12-20T04:34:20.309Z,5.70
2018-12-20T04:35:20.066Z,6.90
2018-12-20T04:36:20.088Z,5.30
2018-12-20T04:37:20.259Z,5.50
2018-12-20T04:38:20.166Z,4.70
2018-12-20T04:39:20.314Z,4.90
2018-12-20T04:40:20.243Z,5.50
2018-12-20T04:41:20.263Z,6.10
2018-12-20T04:42:20.020Z,5.20
2018-12-20T04:43:20.012Z,5.60
2018-12-20T04:44:20.208Z,5.30
2018-12-20T04:45:20.202Z,4.50
2018-12-20T04:46:20.066Z,7.00
2018-12-20T04:47:20.039Z,5.90
2018-12-20T04:48:20.220Z,5.50
2018-12-20T04:49:20.198Z,6.90
2018-12-20T04:50:20.105Z,5.70
2018-12-20T04:51:19.998Z,6.70
2018-12-20T04:52:20.023Z,5.80
2018-12-20T04:53:20.076Z,6.20
2018-12-20T04:54:20.268Z,8.30
2018-12-20T04:55:20.275Z,6.70
2018-12-20T04:56:20.392Z,6.40
2018-12-20T04:57:20.311Z,6.60
2018-12-20T04:58:19.927Z,8.40
2018-12-20T04:59:20.142Z,7.00
2018-12-20T05:00:19.912Z,7.00
2018-12-20T05:01:19.925Z,7.20
2018-12-20T05:02:20.104Z,7.60
2018-12-20T05:03:19.959Z,7.50
2018-12-20T05:04:20.079Z,7.00
2018-12-20T05:05:20.334Z,8.40
2018-12-20T05:06:19.875Z,7.70
2018-12-20T05:07:19.875Z,8.20
2018-12-20T05:08:19.948Z,8.70
2018-12-20T05:09:19.871Z,8.40
2018-12-20T05:10:19.868Z,8.90
2018-12-20T05:11:19.942Z,8.90
2018-12-20T05:12:19.845Z,9.00
2018-12-20T05:13:20.105Z,8.50
2018-12-20T05:14:20.051Z,10.10
2018-12-20T05:15:19.844Z,9.30
2018-12-20T05:16:19.987Z,7.80
2018-12-20T05:17:19.860Z,7.20
2018-12-20T05:18:19.840Z,8.90
2018-12-20T05:19:19.844Z,9.40
2018-12-20T05:20:20.034Z,8.00
2018-12-20T05:21:20.225Z,10.00
2018-12-20T05:22:20.003Z,8.70
2018-12-20T05:23:19.793Z,8.60
2018-12-20T05:24:19.817Z,8.50
2018-12-20T05:25:19.985Z,9.30
2018-12-20T05:26:19.807Z,8.50
2018-12-20T05:27:19.870Z,8.30
2018-12-20T05:28:19.804Z,8.30
2018-12-20T05:29:19.760Z,8.80
2018-12-20T05:30:19.764Z,8.50
2018-12-20T05:31:19.999Z,8.80
2018-12-20T05:32:20.018Z,9.20
2018-12-20T05:33:20.258Z,8.60
2018-12-20T05:34:20.105Z,8.70
2018-12-20T05:35:19.958Z,8.90
2018-12-20T05:36:19.779Z,9.50
2018-12-20T05:37:19.842Z,10.10
2018-12-20T05:38:19.701Z,9.00
2018-12-20T05:39:19.903Z,9.10
2018-12-20T05:40:19.916Z,9.70
2018-12-20T05:41:19.704Z,9.70
2018-12-20T05:42:19.739Z,10.30
2018-12-20T05:43:19.675Z,11.20
2018-12-20T05:44:19.877Z,12.40
2018-12-20T05:45:19.880Z,9.80
2018-12-20T05:46:19.673Z,10.50
2018-12-20T05:47:19.726Z,10.60
2018-12-20T05:48:19.719Z,9.90
2018-12-20T05:49:19.642Z,10.60
2018-12-20T05:50:19.650Z,10.70
2018-12-20T05:51:19.810Z,10.90
2018-12-20T05:52:19.621Z,12.00
2018-12-20T05:53:19.627Z,10.60
2018-12-20T05:54:19.669Z,11.00
2018-12-20T05:55:19.653Z,9.80
2018-12-20T05:56:19.852Z,12.50
2018-12-20T05:57:19.598Z,9.50
2018-12-20T05:58:19.809Z,10.80
2018-12-20T05:59:19.883Z,11.70
2018-12-20T06:00:19.669Z,12.30
2018-12-20T06:01:19.778Z,12.20
2018-12-20T06:02:19.590Z,10.30
2018-12-20T06:03:19.735Z,10.80
2018-12-20T06:04:19.572Z,11.80
2018-12-20T06:05:19.696Z,10.80
2018-12-20T06:06:19.549Z,12.20
2018-12-20T06:07:19.559Z,11.40
2018-12-20T06:08:19.836Z,10.10
2018-12-20T06:09:19.731Z,11.70
2018-12-20T06:10:19.745Z,12.90
2018-12-20T06:11:19.526Z,10.90
2018-12-20T06:12:19.552Z,11.10
2018-12-20T06:13:19.573Z,10.40
2018-12-20T06:14:19.667Z,11.30
2018-12-20T06:15:19.516Z,11.30
2018-12-20T06:16:19.542Z,13.30
2018-12-20T06:17:19.536Z,11.30
2018-12-20T06:18:19.546Z,10.80
2018-12-20T06:19:19.505Z,10.60
2018-12-20T06:20:19.720Z,11.00
2018-12-20T06:21:19.679Z,10.50
2018-12-20T06:22:19.656Z,10.40
2018-12-20T06:23:19.476Z,13.10
2018-12-20T06:24:19.448Z,9.70
2018-12-20T06:25:21.349Z,10.10
2018-12-20T06:26:19.650Z,10.30
2018-12-20T06:27:19.636Z,10.50
2018-12-20T06:28:19.439Z,11.00
2018-12-20T06:29:19.440Z,10.30
2018-12-20T06:30:19.423Z,12.00
2018-12-20T06:31:19.427Z,9.80
2018-12-20T06:32:19.414Z,10.90
2018-12-20T06:33:19.392Z,12.60
2018-12-20T06:34:19.399Z,15.80
2018-12-20T06:35:19.387Z,12.10
2018-12-20T06:36:19.383Z,11.30
2018-12-20T06:37:19.392Z,11.90
2018-12-20T06:38:19.370Z,12.50
2018-12-20T06:39:19.364Z,9.80
2018-12-20T06:40:19.363Z,11.10
2018-12-20T06:41:19.558Z,11.70
2018-12-20T06:42:19.344Z,12.00
2018-12-20T06:43:19.346Z,12.60
2018-12-20T06:44:19.348Z,12.40
2018-12-20T06:45:19.338Z,9.20
2018-12-20T06:46:21.249Z,10.00
2018-12-20T06:47:19.315Z,10.80
2018-12-20T06:48:19.312Z,11.10
2018-12-20T06:49:19.524Z,10.40
2018-12-20T06:50:19.315Z,9.90
2018-12-20T06:51:19.305Z,11.30
2018-12-20T06:52:19.303Z,11.30
2018-12-20T06:53:19.282Z,11.50
2018-12-20T06:54:19.294Z,10.70
2018-12-20T06:55:19.272Z,10.10
2018-12-20T06:56:19.285Z,12.10
2018-12-20T06:57:19.267Z,10.00
2018-12-20T06:58:19.257Z,9.70
2018-12-20T06:59:19.265Z,10.40
2018-12-20T07:00:19.266Z,9.60
2018-12-20T07:01:19.236Z,11.20
2018-12-20T07:02:19.250Z,10.40
2018-12-20T07:03:19.250Z,10.70
2018-12-20T07:04:19.230Z,10.60
2018-12-20T07:05:19.232Z,10.80
2018-12-20T07:06:19.232Z,11.00
2018-12-20T07:07:19.206Z,9.90
2018-12-20T07:08:19.196Z,10.70
2018-12-20T07:09:19.202Z,10.20
2018-12-20T07:10:19.394Z,10.60
2018-12-20T07:11:19.187Z,11.20
2018-12-20T07:12:19.176Z,10.40
2018-12-20T07:13:19.172Z,10.20
2018-12-20T07:14:19.176Z,10.00
2018-12-20T07:15:19.168Z,9.80
2018-12-20T07:16:19.154Z,9.80
2018-12-20T07:17:19.168Z,11.30
2018-12-20T07:18:19.354Z,10.20
2018-12-20T07:19:19.358Z,10.70
2018-12-20T07:20:19.144Z,9.80
2018-12-20T07:21:19.134Z,11.60
2018-12-20T07:22:19.121Z,11.80
2018-12-20T07:23:19.341Z,11.80
2018-12-20T07:24:19.127Z,11.50
2018-12-20T07:25:19.123Z,12.80
2018-12-20T07:26:19.105Z,10.20
2018-12-20T07:27:19.103Z,9.90
2018-12-20T07:28:19.092Z,9.50
2018-12-20T07:29:19.085Z,10.80
2018-12-20T07:30:19.082Z,15.90
2018-12-20T07:31:19.079Z,11.50
2018-12-20T07:32:25.138Z,8.60
2018-12-20T07:33:19.070Z,8.30
2018-12-20T07:34:19.060Z,8.60
2018-12-20T07:35:19.053Z,8.90
2018-12-20T07:36:19.061Z,8.70
2018-12-20T07:37:19.243Z,11.60
2018-12-20T07:38:19.033Z,9.30
2018-12-20T07:39:19.034Z,7.30
2018-12-20T07:40:19.019Z,8.00
2018-12-20T07:41:19.020Z,6.70
2018-12-20T07:42:19.018Z,7.80
2018-12-20T07:43:19.214Z,9.30
2018-12-20T07:44:19.223Z,7.50
2018-12-20T07:45:19.006Z,7.60
2018-12-20T07:46:18.989Z,6.90
2018-12-20T07:47:19.193Z,7.90
2018-12-20T07:48:18.977Z,7.70
2018-12-20T07:49:18.972Z,7.50
2018-12-20T07:50:18.965Z,7.80
2018-12-20T07:51:19.180Z,7.20
2018-12-20T07:52:18.964Z,6.70
2018-12-20T07:53:19.238Z,8.30
2018-12-20T07:54:19.150Z,6.30
2018-12-20T07:55:18.936Z,6.50
2018-12-20T07:56:18.955Z,6.30
2018-12-20T07:57:18.941Z,6.80
2018-12-20T07:58:18.929Z,6.60
2018-12-20T07:59:23.527Z,6.70
2018-12-20T08:00:18.909Z,6.80
2018-12-20T08:01:19.126Z,6.80
2018-12-20T08:02:18.902Z,7.30
2018-12-20T08:03:19.096Z,6.70
2018-12-20T08:04:18.892Z,6.70
2018-12-20T08:05:18.887Z,6.80
2018-12-20T08:06:18.886Z,6.90
2018-12-20T08:07:18.879Z,6.50
2018-12-20T08:08:18.866Z,6.10
2018-12-20T08:09:19.063Z,6.70
2018-12-20T08:10:18.868Z,7.60
2018-12-20T08:11:18.864Z,6.70
2018-12-20T08:12:18.841Z,6.40
2018-12-20T08:13:19.047Z,6.50
2018-12-20T08:14:19.037Z,7.70
2018-12-20T08:15:18.837Z,6.80
2018-12-20T08:16:18.827Z,6.30
2018-12-20T08:17:18.819Z,6.30
2018-12-20T08:18:18.816Z,6.40
2018-12-20T08:19:18.804Z,6.40
2018-12-20T08:20:18.797Z,6.40
2018-12-20T08:21:18.805Z,6.40
2018-12-20T08:22:18.798Z,8.20
2018-12-20T08:23:18.783Z,6.90
2018-12-20T08:24:18.787Z,6.10
2018-12-20T08:25:18.776Z,6.00
2018-12-20T08:26:18.975Z,6.40
2018-12-20T08:27:18.777Z,6.40
2018-12-20T08:28:18.756Z,6.30
2018-12-20T08:29:18.749Z,6.30
2018-12-20T08:30:18.752Z,6.70
2018-12-20T08:31:18.750Z,6.30
2018-12-20T08:32:18.750Z,6.00
2018-12-20T08:33:18.935Z,7.30
2018-12-20T08:34:18.720Z,5.80
2018-12-20T08:35:18.716Z,6.70
2018-12-20T08:36:18.712Z,6.50
2018-12-20T08:37:18.714Z,6.10
2018-12-20T08:38:18.718Z,7.00
2018-12-20T08:39:18.912Z,6.00
2018-12-20T08:40:18.684Z,8.20
2018-12-20T08:41:18.897Z,6.50
2018-12-20T08:42:18.683Z,5.90
2018-12-20T08:43:18.668Z,6.30
2018-12-20T08:44:18.685Z,8.80
2018-12-20T08:45:18.674Z,6.80
2018-12-20T08:46:18.655Z,5.80
2018-12-20T08:47:18.652Z,6.60
2018-12-20T08:48:18.860Z,5.90
2018-12-20T08:49:18.642Z,7.20
2018-12-20T08:50:18.636Z,6.60
2018-12-20T08:51:18.645Z,7.60
2018-12-20T08:52:18.620Z,8.40
2018-12-20T08:53:18.629Z,6.50
2018-12-20T08:54:18.818Z,6.20
2018-12-20T08:55:18.601Z,6.80
2018-12-20T08:56:18.608Z,7.80
2018-12-20T08:57:18.806Z,6.80
2018-12-20T08:58:18.601Z,6.90
2018-12-20T08:59:18.590Z,6.80
2018-12-20T09:00:18.576Z,6.80
2018-12-20T09:01:18.583Z,6.60
2018-12-20T09:02:18.569Z,7.10
2018-12-20T09:03:18.555Z,7.50
2018-12-20T09:04:18.557Z,7.00
2018-12-20T09:05:18.556Z,8.20
2018-12-20T09:06:18.539Z,6.50
2018-12-20T09:07:18.544Z,8.10
2018-12-20T09:08:18.536Z,7.20
2018-12-20T09:09:18.534Z,6.70
2018-12-20T09:10:18.517Z,6.50
2018-12-20T09:11:18.519Z,6.80
2018-12-20T09:12:18.507Z,7.90
2018-12-20T09:13:18.507Z,7.60
2018-12-20T09:14:18.716Z,7.00
2018-12-20T09:15:18.490Z,7.50
2018-12-20T09:16:18.501Z,9.20
2018-12-20T09:17:18.492Z,6.60
2018-12-20T09:18:18.678Z,7.60
2018-12-20T09:19:18.474Z,6.80
2018-12-20T09:20:18.461Z,7.50
2018-12-20T09:21:18.463Z,6.00
2018-12-20T09:22:18.454Z,6.50
2018-12-20T09:23:18.443Z,7.70
2018-12-20T09:24:18.454Z,6.70
2018-12-20T09:25:18.453Z,7.10
2018-12-20T09:26:18.444Z,6.50
2018-12-20T09:27:18.429Z,8.00
2018-12-20T09:28:18.418Z,7.50
2018-12-20T09:29:18.418Z,6.00
2018-12-20T09:30:18.407Z,7.60
2018-12-20T09:31:18.419Z,8.10
2018-12-20T09:32:18.404Z,6.90
2018-12-20T09:33:18.395Z,8.60
2018-12-20T09:34:18.398Z,5.60
2018-12-20T09:35:18.376Z,5.90
2018-12-20T09:36:18.397Z,7.70
2018-12-20T09:37:18.387Z,6.40
2018-12-20T09:38:18.369Z,5.60
2018-12-20T09:39:18.376Z,5.80
2018-12-20T09:40:18.372Z,6.40
2018-12-20T09:41:18.356Z,5.20
2018-12-20T09:42:18.342Z,4.90
2018-12-20T09:43:18.339Z,5.80
2018-12-20T09:44:18.328Z,5.20
2018-12-20T09:45:18.329Z,5.30
2018-12-20T09:46:18.335Z,5.00
2018-12-20T09:47:18.316Z,6.70
2018-12-20T09:48:18.334Z,4.00
2018-12-20T09:49:18.302Z,5.80
2018-12-20T09:50:18.319Z,5.10
2018-12-20T09:51:18.320Z,5.30
2018-12-20T09:52:18.302Z,5.00
2018-12-20T09:53:18.281Z,6.50
2018-12-20T09:54:18.291Z,6.30
2018-12-20T09:55:18.291Z,4.80
2018-12-20T09:56:18.274Z,9.60
2018-12-20T09:57:18.479Z,6.30
2018-12-20T09:58:18.253Z,7.40
2018-12-20T09:59:18.251Z,7.20
2018-12-20T10:00:18.444Z,6.60
2018-12-20T10:01:18.260Z,6.10
2018-12-20T10:02:18.241Z,8.50
2018-12-20T10:03:18.250Z,8.00
2018-12-20T10:04:18.423Z,5.80
2018-12-20T10:05:18.241Z,5.70
2018-12-20T10:06:18.209Z,6.10
2018-12-20T10:07:18.201Z,5.90
2018-12-20T10:08:18.199Z,6.20
2018-12-20T10:09:18.219Z,5.00
2018-12-20T10:10:18.194Z,6.80
2018-12-20T10:11:18.189Z,5.80
2018-12-20T10:12:18.178Z,4.50
2018-12-20T10:13:18.166Z,4.60
2018-12-20T10:14:18.161Z,6.00
2018-12-20T10:15:18.166Z,5.60
2018-12-20T10:16:18.158Z,5.70
2018-12-20T10:17:20.102Z,6.00
2018-12-20T10:18:18.150Z,8.60
2018-12-20T10:19:18.145Z,5.00
2018-12-20T10:20:18.130Z,5.00
2018-12-20T10:21:18.138Z,5.60
2018-12-20T10:22:18.126Z,5.50
2018-12-20T10:23:18.115Z,4.80
2018-12-20T10:24:18.314Z,5.70
2018-12-20T10:25:18.102Z,4.70
2018-12-20T10:26:18.096Z,3.80
2018-12-20T10:27:18.307Z,4.30
2018-12-20T10:28:18.291Z,3.90
2018-12-20T10:29:18.284Z,5.30
2018-12-20T10:30:18.099Z,3.80
2018-12-20T10:31:18.080Z,4.10
2018-12-20T10:32:18.265Z,3.70
2018-12-20T10:33:18.263Z,4.70
2018-12-20T10:34:18.066Z,4.70
2018-12-20T10:35:18.067Z,6.00
2018-12-20T10:36:18.069Z,5.70
2018-12-20T10:37:18.044Z,6.40
2018-12-20T10:38:18.039Z,3.90
2018-12-20T10:39:18.245Z,4.90
2018-12-20T10:40:18.016Z,6.30
2018-12-20T10:41:18.024Z,6.40
2018-12-20T10:42:18.011Z,4.70
2018-12-20T10:43:18.010Z,4.40
2018-12-20T10:44:17.997Z,4.90
2018-12-20T10:45:17.991Z,4.40
2018-12-20T10:46:18.198Z,5.90
2018-12-20T10:47:17.998Z,4.70
2018-12-20T10:48:18.221Z,5.60
2018-12-20T10:49:17.981Z,4.90
2018-12-20T10:50:17.968Z,4.90
2018-12-20T10:51:17.978Z,5.50
2018-12-20T10:52:19.419Z,5.00
2018-12-20T10:53:17.952Z,6.50
2018-12-20T10:54:17.946Z,8.00
2018-12-20T10:55:17.938Z,6.00
2018-12-20T10:56:17.935Z,4.90
2018-12-20T10:57:17.944Z,5.40
2018-12-20T10:58:17.924Z,6.10
2018-12-20T10:59:17.934Z,4.90
2018-12-20T11:00:17.922Z,4.90
2018-12-20T11:01:17.910Z,4.00
2018-12-20T11:02:17.931Z,5.30
2018-12-20T11:03:17.897Z,6.10
2018-12-20T11:04:17.922Z,4.30
2018-12-20T11:05:17.878Z,3.90
2018-12-20T11:06:17.881Z,5.30
2018-12-20T11:07:17.884Z,4.40
2018-12-20T11:08:17.878Z,3.50
2018-12-20T11:09:17.886Z,5.50
2018-12-20T11:10:17.859Z,5.10
2018-12-20T11:11:17.863Z,4.00
2018-12-20T11:12:17.854Z,3.70
2018-12-20T11:13:17.857Z,4.40
2018-12-20T11:14:17.841Z,2.60
2018-12-20T11:15:17.843Z,2.60
2018-12-20T11:16:17.823Z,3.70
2018-12-20T11:17:18.025Z,3.30
2018-12-20T11:18:17.827Z,4.00
2018-12-20T11:19:17.821Z,3.30
2018-12-20T11:20:17.807Z,2.80
2018-12-20T11:21:17.806Z,3.10
2018-12-20T11:22:17.800Z,2.50
2018-12-20T11:23:17.796Z,2.10
2018-12-20T11:24:17.803Z,3.10
2018-12-20T11:25:17.976Z,2.00
2018-12-20T11:26:17.970Z,1.90
2018-12-20T11:27:17.763Z,5.00
2018-12-20T11:28:17.763Z,3.30
2018-12-20T11:29:17.759Z,2.20
2018-12-20T11:30:17.765Z,4.50
2018-12-20T11:31:17.778Z,5.90
2018-12-20T11:32:17.765Z,2.70
2018-12-20T11:33:17.760Z,2.20
2018-12-20T11:34:17.738Z,3.00
2018-12-20T11:35:17.743Z,3.00
2018-12-20T11:36:17.745Z,2.50
2018-12-20T11:37:17.926Z,2.90
2018-12-20T11:38:17.706Z,2.20
2018-12-20T11:39:17.714Z,3.60
2018-12-20T11:40:17.701Z,1.80
2018-12-20T11:41:17.894Z,1.50
2018-12-20T11:42:17.705Z,1.90
2018-12-20T11:43:17.679Z,1.60
2018-12-20T11:44:17.693Z,2.20
2018-12-20T11:45:17.687Z,4.30
2018-12-20T11:46:17.675Z,1.70
2018-12-20T11:47:17.678Z,1.30
2018-12-20T11:48:17.667Z,1.60
2018-12-20T11:49:17.867Z,3.00
2018-12-20T11:50:17.659Z,2.60
2018-12-20T11:51:17.636Z,2.90
2018-12-20T11:52:17.685Z,1.80
2018-12-20T11:53:17.642Z,1.60
2018-12-20T11:54:17.823Z,1.20
2018-12-20T11:55:17.623Z,2.20
2018-12-20T11:56:17.611Z,1.60
2018-12-20T11:57:17.808Z,1.30
2018-12-20T11:58:17.611Z,1.90
2018-12-20T11:59:17.596Z,2.10
2018-12-20T12:00:17.593Z,2.80
2018-12-20T12:01:17.604Z,1.60
2018-12-20T12:02:24.453Z,1.80
2018-12-20T12:03:17.792Z,2.50
2018-12-20T12:04:17.571Z,1.50
2018-12-20T12:05:17.563Z,2.90
2018-12-20T12:06:17.766Z,2.40
2018-12-20T12:07:17.564Z,2.20
2018-12-20T12:08:17.550Z,1.40
2018-12-20T12:09:17.547Z,1.40
2018-12-20T12:10:17.748Z,2.00
2018-12-20T12:11:17.545Z,3.50
2018-12-20T12:12:17.531Z,2.00
2018-12-20T12:13:17.556Z,2.10
2018-12-20T12:14:17.537Z,1.80
2018-12-20T12:15:17.533Z,2.30
2018-12-20T12:16:17.514Z,2.90
2018-12-20T12:17:17.512Z,2.50
2018-12-20T12:18:17.509Z,2.70
2018-12-20T12:19:17.502Z,1.70
2018-12-20T12:20:17.498Z,1.50
2018-12-20T12:21:17.493Z,1.90
2018-12-20T12:22:17.482Z,3.10
2018-12-20T12:23:17.477Z,1.80
2018-12-20T12:24:17.474Z,2.90
2018-12-20T12:25:17.677Z,2.40
2018-12-20T12:26:17.460Z,2.30
2018-12-20T12:27:17.670Z,2.70
2018-12-20T12:28:17.445Z,2.40
2018-12-20T12:29:17.443Z,2.90
2018-12-20T12:30:17.435Z,3.90
2018-12-20T12:31:17.434Z,1.50
2018-12-20T12:32:17.426Z,2.10
2018-12-20T12:33:17.418Z,1.60
2018-12-20T12:34:17.425Z,2.50
2018-12-20T12:35:17.408Z,2.50
2018-12-20T12:36:17.421Z,3.10
2018-12-20T12:37:17.398Z,3.40
2018-12-20T12:38:17.397Z,3.10
2018-12-20T12:39:17.415Z,3.00
2018-12-20T12:40:17.390Z,3.40
2018-12-20T12:41:17.381Z,2.80
2018-12-20T12:42:17.374Z,2.10
2018-12-20T12:43:17.399Z,1.80
2018-12-20T12:44:17.361Z,3.10
2018-12-20T12:45:17.373Z,4.00
2018-12-20T12:46:17.352Z,2.10
2018-12-20T12:47:17.362Z,2.60
2018-12-20T12:48:17.347Z,2.80
2018-12-20T12:49:17.350Z,3.60
2018-12-20T12:50:17.347Z,3.10
2018-12-20T12:51:17.332Z,2.80
2018-12-20T12:52:17.322Z,3.10
2018-12-20T12:53:17.319Z,2.40
2018-12-20T12:54:17.336Z,2.30
2018-12-20T12:55:17.304Z,5.40
2018-12-20T12:56:17.302Z,5.30
2018-12-20T12:57:17.311Z,3.70
2018-12-20T12:58:17.312Z,3.70
2018-12-20T12:59:17.290Z,4.20
2018-12-20T13:00:17.313Z,4.30
2018-12-20T13:01:17.286Z,3.80
2018-12-20T13:02:17.276Z,3.20
2018-12-20T13:03:17.269Z,3.60
2018-12-20T13:04:17.291Z,4.90
2018-12-20T13:05:17.259Z,6.00
2018-12-20T13:06:17.363Z,4.40
2018-12-20T13:07:17.256Z,5.40
2018-12-20T13:08:17.243Z,4.00
2018-12-20T13:09:17.244Z,2.80
2018-12-20T13:10:17.245Z,3.80
2018-12-20T13:11:17.231Z,2.90
2018-12-20T13:12:17.217Z,4.60
2018-12-20T13:13:17.221Z,4.10
2018-12-20T13:14:17.214Z,4.10
2018-12-20T13:15:17.219Z,5.80